createdAt,value
2022-08-11T00:01:54.258Z,2.22
2022-08-11T00:04:24.913Z,2.00
2022-08-11T00:06:53.530Z,2.13
2022-08-11T00:09:22.689Z,2.13
2022-08-11T00:11:53.545Z,2.20
2022-08-11T00:14:36.055Z,2.25
2022-08-11T00:17:10.887Z,2.10
2022-08-11T00:20:11.686Z,1.70
2022-08-11T00:22:34.151Z,2.00
2022-08-11T00:25:22.187Z,1.90
2022-08-11T00:27:49.391Z,1.80
2022-08-11T00:30:16.884Z,2.13
2022-08-11T00:32:46.262Z,2.00
2022-08-11T00:35:55.548Z,2.20
2022-08-11T00:38:07.349Z,2.10
2022-08-11T00:40:44.109Z,2.13
2022-08-11T00:43:38.182Z,1.90
2022-08-11T00:46:46.465Z,2.05
2022-08-11T00:49:43.205Z,2.00
2022-08-11T00:52:43.883Z,1.85
2022-08-11T00:55:34.026Z,2.10
2022-08-11T00:58:28.277Z,1.80
2022-08-11T01:01:08.035Z,1.83
2022-08-11T01:03:57.172Z,2.30
2022-08-11T01:06:45.294Z,1.90
2022-08-11T01:09:54.945Z,2.05
2022-08-11T01:12:49.793Z,2.00
2022-08-11T01:15:57.406Z,2.30
2022-08-11T01:18:58.706Z,2.00
2022-08-11T01:22:05.044Z,2.13
2022-08-11T01:24:53.739Z,1.95
2022-08-11T01:27:26.685Z,1.95
2022-08-11T01:30:08.871Z,2.20
2022-08-11T01:32:55.179Z,2.22
2022-08-11T01:35:35.481Z,1.80
2022-08-11T01:38:25.809Z,2.40
2022-08-11T01:41:12.794Z,2.67
2022-08-11T01:44:13.267Z,1.90
2022-08-11T01:46:50.413Z,2.25
2022-08-11T01:50:09.057Z,2.00
2022-08-11T01:52:36.650Z,2.25
2022-08-11T01:55:24.116Z,2.10
2022-08-11T02:40:21.022Z,2.28
2022-08-11T02:43:03.597Z,2.40
2022-08-11T02:45:46.180Z,2.20
2022-08-11T02:49:06.268Z,2.03
2022-08-11T02:51:47.613Z,2.20
2022-08-11T02:54:35.577Z,2.60
2022-08-11T02:57:43.662Z,2.25
2022-08-11T03:00:13.219Z,2.40
2022-08-11T03:03:19.224Z,2.30
2022-08-11T03:06:08.318Z,2.20
2022-08-11T03:08:56.573Z,2.65
2022-08-11T03:11:59.945Z,2.10
2022-08-11T03:15:05.695Z,1.85
2022-08-11T03:17:53.599Z,2.17
2022-08-11T03:20:26.144Z,2.30
2022-08-11T03:23:20.618Z,1.98
2022-08-11T03:26:14.693Z,2.50
2022-08-11T03:28:47.586Z,2.22
2022-08-11T03:31:36.535Z,2.17
2022-08-11T03:34:07.897Z,2.40
2022-08-11T03:37:16.608Z,2.30
2022-08-11T03:40:04.888Z,2.55
2022-08-11T03:42:57.463Z,2.35
2022-08-11T03:45:30.865Z,2.42
2022-08-11T03:48:22.253Z,2.70
2022-08-11T03:51:11.078Z,2.40
2022-08-11T03:54:10.063Z,2.50
2022-08-11T03:57:25.154Z,2.70
2022-08-11T04:00:11.179Z,3.00
2022-08-11T04:05:29.158Z,2.60
2022-08-11T04:07:58.741Z,2.67
2022-08-11T04:10:47.431Z,2.60
2022-08-11T04:13:56.907Z,2.70
2022-08-11T04:16:59.340Z,3.17
2022-08-11T04:20:08.653Z,2.88
2022-08-11T04:23:08.577Z,2.78
2022-08-11T04:26:18.663Z,3.28
2022-08-11T04:29:09.561Z,3.00
2022-08-11T04:32:18.194Z,3.88
2022-08-11T04:34:59.911Z,3.00
2022-08-11T04:37:50.754Z,3.13
2022-08-11T04:40:32.685Z,3.17
2022-08-11T04:43:20.667Z,3.50
2022-08-11T04:46:14.718Z,3.92
2022-08-11T04:49:43.582Z,3.30
2022-08-11T04:52:56.096Z,3.30
2022-08-11T04:55:56.426Z,3.33
2022-08-11T04:58:57.997Z,2.97
2022-08-11T05:01:55.689Z,3.10
2022-08-11T05:04:59.810Z,3.50
2022-08-11T05:07:57.455Z,3.38
2022-08-11T05:10:49.104Z,3.30
2022-08-11T05:14:05.438Z,3.33
2022-08-11T05:17:08.700Z,3.30
2022-08-11T05:19:55.787Z,3.50
2022-08-11T05:22:47.306Z,3.72
2022-08-11T05:26:45.066Z,3.40
2022-08-11T05:29:20.368Z,3.55
2022-08-11T05:32:20.672Z,3.38
2022-08-11T05:34:56.324Z,3.55
2022-08-11T05:40:29.727Z,3.60
2022-08-11T05:43:25.470Z,3.60
2022-08-11T05:46:22.668Z,3.92
2022-08-11T05:49:09.852Z,3.60
2022-08-11T05:52:05.738Z,3.00
2022-08-11T05:55:06.373Z,3.45
2022-08-11T05:57:49.990Z,3.60
2022-08-11T06:00:19.598Z,3.40
2022-08-11T06:02:56.485Z,3.60
2022-08-11T06:05:25.059Z,3.17
2022-08-11T06:07:57.046Z,2.83
2022-08-11T06:10:33.415Z,2.20
2022-08-11T06:13:01.983Z,3.10
2022-08-11T06:15:31.209Z,15.65
2022-08-11T06:18:01.511Z,11.13
2022-08-11T06:20:37.636Z,9.45
2022-08-11T06:23:07.569Z,6.72
2022-08-11T06:25:36.041Z,25.70
2022-08-11T06:28:07.577Z,26.45
2022-08-11T06:30:40.489Z,16.73
2022-08-11T06:33:14.509Z,8.48
2022-08-11T06:36:00.027Z,26.70
2022-08-11T06:38:39.309Z,24.40
2022-08-11T06:41:32.051Z,14.38
2022-08-11T06:44:14.747Z,21.67
2022-08-11T06:46:52.243Z,20.35
2022-08-11T06:49:40.764Z,13.50
2022-08-11T06:52:35.893Z,6.85
2022-08-11T06:55:57.785Z,5.07
2022-08-11T06:58:36.859Z,4.90
2022-08-11T07:01:14.596Z,4.25
2022-08-11T07:03:48.317Z,3.65
2022-08-11T07:06:29.184Z,3.40
2022-08-11T07:09:51.701Z,5.80
2022-08-11T07:12:40.704Z,8.98
2022-08-11T07:16:11.203Z,7.22
2022-08-11T07:18:53.454Z,5.38
2022-08-11T07:22:02.276Z,4.32
2022-08-11T07:25:05.868Z,3.80
2022-08-11T07:28:01.107Z,3.42
2022-08-11T07:30:28.754Z,2.95
2022-08-11T07:32:58.843Z,3.47
2022-08-11T07:35:42.596Z,2.40
2022-08-11T07:38:22.071Z,2.80
2022-08-11T07:40:49.717Z,2.50
2022-08-11T07:43:17.686Z,2.88
2022-08-11T07:46:15.331Z,3.00
2022-08-11T07:49:02.030Z,2.38
2022-08-11T07:51:48.275Z,2.15
2022-08-11T07:54:16.962Z,2.30
2022-08-11T07:56:55.057Z,2.25
2022-08-11T08:00:04.105Z,2.10
2022-08-11T08:02:51.001Z,2.60
2022-08-11T08:05:37.582Z,2.15
2022-08-11T08:08:25.989Z,2.65
2022-08-11T08:11:13.106Z,2.50
2022-08-11T08:13:58.819Z,2.42
2022-08-11T08:16:44.877Z,2.20
2022-08-11T08:19:15.158Z,2.47
2022-08-11T08:21:45.406Z,2.13
2022-08-11T08:24:13.838Z,2.53
2022-08-11T08:27:01.196Z,2.30
2022-08-11T08:29:50.853Z,2.40
2022-08-11T08:32:20.315Z,2.42
2022-08-11T08:34:51.767Z,1.85
2022-08-11T08:37:47.074Z,2.60
2022-08-11T08:40:09.701Z,2.17
2022-08-11T08:42:46.275Z,2.85
2022-08-11T08:45:18.607Z,2.78
2022-08-11T08:48:07.595Z,2.80
2022-08-11T08:50:57.252Z,3.00
2022-08-11T08:53:29.615Z,2.35
2022-08-11T08:55:59.763Z,2.60
2022-08-11T08:58:27.046Z,2.35
2022-08-11T09:00:56.554Z,2.50
2022-08-11T09:03:40.950Z,2.83
2022-08-11T09:06:11.547Z,3.17
2022-08-11T09:08:40.894Z,2.65
2022-08-11T09:11:26.650Z,2.30
2022-08-11T09:14:05.752Z,2.22
2022-08-11T09:16:36.098Z,2.42
2022-08-11T09:19:03.950Z,2.70
2022-08-11T09:21:46.272Z,2.10
2022-08-11T09:24:34.336Z,2.60
2022-08-11T09:27:10.001Z,2.33
2022-08-11T09:29:38.845Z,2.50
2022-08-11T09:32:07.204Z,2.10
2022-08-11T09:34:36.649Z,2.50
2022-08-11T09:37:53.839Z,2.50
2022-08-11T09:40:32.372Z,2.58
2022-08-11T09:43:23.569Z,2.30
2022-08-11T09:45:52.704Z,2.63
2022-08-11T09:48:20.759Z,2.47
2022-08-11T09:50:52.975Z,2.80
2022-08-11T09:53:35.973Z,2.80
2022-08-11T09:56:27.828Z,2.10
2022-08-11T09:58:54.735Z,2.60
2022-08-11T10:01:27.820Z,2.85
2022-08-11T10:04:07.187Z,2.78
2022-08-11T10:07:00.679Z,3.22
2022-08-11T10:10:02.842Z,2.45
2022-08-11T10:12:33.387Z,2.60
2022-08-11T10:15:23.391Z,2.20
2022-08-11T10:18:17.211Z,2.63
2022-08-11T10:20:50.288Z,3.60
2022-08-11T10:24:00.987Z,6.63
2022-08-11T10:26:44.829Z,7.15
2022-08-11T10:29:36.738Z,7.40
2022-08-11T10:32:24.721Z,7.70
2022-08-11T10:35:00.704Z,7.80
2022-08-11T10:38:15.742Z,6.75
2022-08-11T10:40:23.703Z,6.05
2022-08-11T10:43:03.645Z,5.40
2022-08-11T10:45:56.722Z,5.13
2022-08-11T10:48:28.028Z,4.07
2022-08-11T10:51:14.641Z,54.83
2022-08-11T10:54:05.808Z,43.53
2022-08-11T10:56:57.261Z,25.08
2022-08-11T10:59:28.061Z,22.52
2022-08-11T11:01:55.402Z,9.48
2022-08-11T11:04:33.912Z,10.38
2022-08-11T11:07:05.873Z,9.65
2022-08-11T11:09:39.019Z,17.05
2022-08-11T11:12:39.015Z,14.30
2022-08-11T11:15:25.070Z,9.27
2022-08-11T11:23:24.466Z,7.20
2022-08-11T11:26:28.727Z,13.02
2022-08-11T11:29:07.509Z,21.63
2022-08-11T11:31:51.842Z,12.50
2022-08-11T11:34:53.548Z,9.85
2022-08-11T11:37:23.933Z,7.22
2022-08-11T11:39:52.765Z,5.32
2022-08-11T11:42:21.430Z,5.07
2022-08-11T11:44:49.158Z,23.85
2022-08-11T11:47:21.866Z,15.20
2022-08-11T11:49:50.178Z,12.25
2022-08-11T11:52:20.379Z,7.60
2022-08-11T11:54:50.559Z,5.70
2022-08-11T11:57:38.328Z,4.50
2022-08-11T12:00:33.497Z,3.80
2022-08-11T12:03:05.060Z,3.90
2022-08-11T12:05:34.862Z,3.53
2022-08-11T12:08:18.767Z,3.20
2022-08-11T12:10:48.452Z,3.30
2022-08-11T12:13:35.881Z,2.70
2022-08-11T12:16:34.727Z,3.00
2022-08-11T12:18:59.911Z,2.53
2022-08-11T12:21:28.836Z,2.70
2022-08-11T12:24:16.790Z,2.20
2022-08-11T12:26:54.374Z,2.50
2022-08-11T12:29:41.123Z,2.80
2022-08-11T12:32:11.540Z,3.22
2022-08-11T12:34:38.486Z,2.67
2022-08-11T12:37:13.036Z,2.50
2022-08-11T12:40:43.409Z,2.60
2022-08-11T12:43:24.146Z,2.10
2022-08-11T12:46:10.050Z,2.78
2022-08-11T12:49:03.786Z,4.03
2022-08-11T12:52:11.286Z,5.00
2022-08-11T12:55:13.273Z,5.13
2022-08-11T12:58:04.561Z,6.03
2022-08-11T13:00:52.988Z,8.23
2022-08-11T13:03:39.918Z,7.45
2022-08-11T13:06:07.833Z,20.75
2022-08-11T13:08:37.822Z,19.67
2022-08-11T13:11:24.105Z,9.68
2022-08-11T13:13:57.051Z,5.80
2022-08-11T13:16:56.837Z,6.28
2022-08-11T13:19:24.043Z,5.40
2022-08-11T13:21:52.410Z,4.45
2022-08-11T13:24:21.593Z,4.22
2022-08-11T13:26:50.579Z,5.20
2022-08-11T13:29:24.184Z,13.57
2022-08-11T13:31:53.857Z,11.70
2022-08-11T13:34:24.524Z,7.13
2022-08-11T13:36:55.250Z,19.15
2022-08-11T13:39:25.863Z,26.20
2022-08-11T13:41:57.857Z,11.43
2022-08-11T13:44:27.504Z,7.75
2022-08-11T13:47:04.638Z,5.05
2022-08-11T13:49:34.881Z,4.60
2022-08-11T13:52:02.671Z,3.65
2022-08-11T13:54:34.365Z,3.55
2022-08-11T13:57:09.176Z,3.90
2022-08-11T13:59:51.877Z,3.10
2022-08-11T14:02:29.291Z,2.83
2022-08-11T14:05:18.011Z,2.60
2022-08-11T14:08:37.726Z,2.97
2022-08-11T14:12:20.289Z,2.30
2022-08-11T14:14:23.257Z,20.30
2022-08-11T14:16:55.577Z,10.20
2022-08-11T14:19:26.085Z,7.45
2022-08-11T14:22:09.789Z,5.95
2022-08-11T14:24:42.727Z,10.77
2022-08-11T14:28:30.904Z,9.55
2022-08-11T14:30:00.225Z,7.43
2022-08-11T14:32:27.884Z,5.45
2022-08-11T14:34:55.840Z,4.90
2022-08-11T14:37:27.017Z,4.75
2022-08-11T14:40:02.906Z,3.88
2022-08-11T14:42:50.665Z,3.33
2022-08-11T14:45:57.919Z,3.42
2022-08-11T14:48:25.532Z,2.70
2022-08-11T14:50:54.585Z,2.95
2022-08-11T14:53:24.040Z,2.67
2022-08-11T14:56:12.636Z,2.90
2022-08-11T14:58:40.606Z,2.90
2022-08-11T15:01:28.674Z,2.70
2022-08-11T15:04:34.002Z,2.78
2022-08-11T15:06:45.545Z,2.78
2022-08-11T15:09:13.329Z,2.40
2022-08-11T15:12:01.359Z,8.27
2022-08-11T15:14:47.256Z,20.77
2022-08-11T15:17:15.687Z,24.95
2022-08-11T15:20:05.104Z,14.80
2022-08-11T15:22:50.819Z,9.05
2022-08-11T15:25:20.172Z,7.15
2022-08-11T15:28:09.190Z,6.57
2022-08-11T15:30:55.801Z,6.95
2022-08-11T15:33:44.151Z,5.45
2022-08-11T15:36:32.707Z,5.30
2022-08-11T15:39:20.605Z,5.13
2022-08-11T15:42:31.893Z,4.47
2022-08-11T15:45:21.538Z,4.15
2022-08-11T15:48:05.734Z,3.10
2022-08-11T15:50:38.641Z,3.20
2022-08-11T15:53:12.013Z,3.30
2022-08-11T15:55:40.015Z,3.17
2022-08-11T15:58:28.539Z,2.97
2022-08-11T16:01:15.878Z,3.15
2022-08-11T16:04:12.989Z,2.80
2022-08-11T16:06:52.011Z,2.58
2022-08-11T16:09:47.591Z,2.83
2022-08-11T16:12:23.096Z,2.70
2022-08-11T16:15:20.029Z,2.60
2022-08-11T16:17:53.257Z,2.47
2022-08-11T16:20:23.125Z,2.50
2022-08-11T16:23:01.325Z,2.22
2022-08-11T16:27:06.206Z,2.20
2022-08-11T16:28:22.090Z,2.80
2022-08-11T16:30:50.081Z,2.40
2022-08-11T16:33:49.086Z,2.42
2022-08-11T16:36:25.391Z,2.30
2022-08-11T16:38:54.391Z,2.33
2022-08-11T16:41:42.428Z,2.50
2022-08-11T16:44:32.850Z,2.20
2022-08-11T16:47:06.571Z,2.30
2022-08-11T16:49:52.986Z,2.65
2022-08-11T16:52:22.799Z,2.17
2022-08-11T16:54:50.225Z,2.00
2022-08-11T16:57:42.616Z,2.40
2022-08-11T17:00:12.456Z,2.28
2022-08-11T17:03:04.648Z,2.28
2022-08-11T17:05:55.029Z,2.70
2022-08-11T17:08:56.954Z,2.33
2022-08-11T17:11:46.270Z,2.60
2022-08-11T17:14:35.146Z,2.85
2022-08-11T17:17:05.985Z,2.30
2022-08-11T17:20:41.377Z,2.30
2022-08-11T17:22:40.909Z,2.28
2022-08-11T17:25:10.024Z,2.83
2022-08-11T17:27:38.898Z,4.35
2022-08-11T17:30:07.636Z,10.82
2022-08-11T17:33:00.828Z,16.80
2022-08-11T17:35:39.327Z,31.25
2022-08-11T17:38:12.516Z,32.60
2022-08-11T17:41:03.360Z,24.77
2022-08-11T17:43:50.394Z,19.38
2022-08-11T17:46:37.454Z,15.07
2022-08-11T17:49:07.843Z,11.50
2022-08-11T17:51:54.205Z,9.73
2022-08-11T17:54:41.959Z,10.93
2022-08-11T17:57:28.640Z,19.10
2022-08-11T17:59:58.030Z,20.95
2022-08-11T18:02:56.531Z,18.23
2022-08-11T18:05:30.294Z,13.38
2022-08-11T18:08:19.019Z,9.40
2022-08-11T18:11:05.074Z,8.85
2022-08-11T18:13:53.300Z,6.72
2022-08-11T18:16:39.427Z,4.80
2022-08-11T18:19:30.860Z,4.20
2022-08-11T18:22:37.812Z,4.07
2022-08-11T18:28:27.259Z,12.02
2022-08-11T18:31:17.475Z,11.48
2022-08-11T18:34:09.906Z,10.13
2022-08-11T18:37:21.999Z,18.58
2022-08-11T18:40:27.237Z,21.30
2022-08-11T18:43:16.478Z,21.27
2022-08-11T18:46:06.660Z,14.48
2022-08-11T18:48:57.863Z,8.77
2022-08-11T18:51:45.070Z,6.20
2022-08-11T18:54:31.709Z,4.40
2022-08-11T18:57:22.083Z,3.55
2022-08-11T19:00:11.250Z,3.42
2022-08-11T19:02:58.932Z,3.10
2022-08-11T19:06:37.108Z,2.83
2022-08-11T19:09:01.668Z,4.07
2022-08-11T19:11:48.971Z,13.07
2022-08-11T19:14:37.767Z,22.73
2022-08-11T19:17:44.646Z,20.85
2022-08-11T19:20:38.279Z,21.13
2022-08-11T19:23:27.334Z,25.55
2022-08-11T19:26:14.885Z,20.33
2022-08-11T19:29:03.396Z,15.00
2022-08-11T19:31:50.251Z,10.05
2022-08-11T19:34:37.868Z,28.23
2022-08-11T19:37:25.809Z,30.23
2022-08-11T19:40:22.214Z,19.83
2022-08-11T19:43:14.778Z,14.02
2022-08-11T19:46:12.297Z,8.65
2022-08-11T19:49:00.042Z,5.82
2022-08-11T19:51:47.019Z,4.70
2022-08-11T19:54:42.604Z,3.70
2022-08-11T19:57:28.753Z,3.10
2022-08-11T20:00:14.982Z,2.92
2022-08-11T20:03:00.683Z,2.47
2022-08-11T20:05:55.480Z,2.70
2022-08-11T20:08:48.566Z,2.70
2022-08-11T20:11:36.529Z,2.65
2022-08-11T20:14:24.150Z,2.60
2022-08-11T20:17:13.662Z,2.72
2022-08-11T20:22:52.526Z,41.90
2022-08-11T20:25:41.130Z,60.05
2022-08-11T20:28:29.642Z,37.55
2022-08-11T20:31:15.393Z,13.10
2022-08-11T20:34:02.729Z,23.65
2022-08-11T20:36:54.922Z,36.00
2022-08-11T20:39:43.206Z,31.52
2022-08-11T20:42:39.834Z,18.95
2022-08-11T20:48:15.412Z,50.63
2022-08-11T20:51:06.213Z,42.63
2022-08-11T20:53:58.011Z,23.77
2022-08-11T20:56:46.799Z,10.45
2022-08-11T20:59:42.823Z,7.90
2022-08-11T21:02:36.012Z,5.22
2022-08-11T21:06:08.933Z,3.85
2022-08-11T21:08:28.581Z,3.05
2022-08-11T21:11:14.190Z,2.60
2022-08-11T21:14:13.674Z,2.83
2022-08-11T21:17:26.928Z,2.75
2022-08-11T21:20:18.412Z,2.63
2022-08-11T21:23:23.340Z,2.75
2022-08-11T21:26:21.390Z,2.40
2022-08-11T21:29:07.918Z,2.92
2022-08-11T21:31:54.443Z,2.63
2022-08-11T21:34:42.398Z,2.53
2022-08-11T21:37:31.052Z,17.20
2022-08-11T21:40:18.683Z,38.05
2022-08-11T21:43:06.610Z,36.65
2022-08-11T21:45:56.012Z,24.50
2022-08-11T21:48:45.557Z,62.70
2022-08-11T21:51:32.216Z,45.30
2022-08-11T21:54:21.088Z,39.90
2022-08-11T21:57:08.583Z,41.00
2022-08-11T22:00:03.757Z,47.97
2022-08-11T22:02:53.139Z,44.72
2022-08-11T22:05:40.935Z,41.70
2022-08-11T22:08:28.262Z,44.00
2022-08-11T22:11:14.176Z,35.03
2022-08-11T22:14:05.812Z,24.50
2022-08-11T22:16:54.254Z,15.07
2022-08-11T22:19:42.484Z,9.00
2022-08-11T22:22:31.385Z,5.25
2022-08-11T22:25:19.248Z,4.00
2022-08-11T22:28:06.690Z,2.80
2022-08-11T22:33:48.791Z,2.80
2022-08-11T22:36:49.502Z,2.25
2022-08-11T22:39:36.562Z,2.30
2022-08-11T22:42:33.072Z,2.25
2022-08-11T22:45:19.520Z,2.05
2022-08-11T22:48:06.900Z,2.40
2022-08-11T22:50:55.392Z,2.30
2022-08-11T22:53:57.619Z,2.30
2022-08-11T22:56:46.309Z,2.30
2022-08-11T22:59:33.017Z,2.42
2022-08-11T23:02:18.657Z,2.40
2022-08-11T23:05:04.547Z,2.30
2022-08-11T23:10:39.973Z,2.20
2022-08-11T23:13:27.756Z,2.15
2022-08-11T23:16:13.865Z,2.50
2022-08-11T23:18:59.933Z,2.20
2022-08-11T23:21:47.453Z,2.42
2022-08-11T23:24:34.131Z,2.40
2022-08-11T23:27:21.861Z,2.47
2022-08-11T23:30:10.001Z,2.33
2022-08-11T23:32:57.937Z,2.10
2022-08-11T23:35:52.676Z,2.00
2022-08-11T23:38:43.235Z,1.90
2022-08-11T23:41:32.478Z,2.55
2022-08-11T23:44:24.496Z,2.38
2022-08-11T23:47:14.806Z,2.08
2022-08-11T23:50:01.168Z,2.10
2022-08-11T23:52:48.307Z,2.60
2022-08-11T23:55:39.035Z,2.20
2022-08-11T23:58:25.939Z,2.60
